Time;durP1;ratioP1;P1;durP2;ratioP2;P2;SDS_P1;SDS_P2;PMS_P1;PMS_P2;Temp;Humidity;BMP_temperature;BMP_pressure;BME280_temperature;BME280_humidity;BME280_pressure;Samples;Min_cycle;Max_cycle;Signal;HPM_P1;HPM_P2
2024/02/28 00:00:13;;;;;;;40.78;34.35;;;;;;;;;;5002686;28;20202;-86
2024/02/28 00:02:41;;;;;;;39.45;32.90;;;;;;;;;;4990065;28;20257;-86
2024/02/28 00:05:08;;;;;;;45.13;34.83;;;;;;;;;;5003243;28;20237;-85
2024/02/28 00:07:35;;;;;;;48.97;35.95;;;;;;;;;;4995194;28;20210;-86
2024/02/28 00:10:02;;;;;;;45.60;34.85;;;;;;;;;;4997568;28;20286;-86
2024/02/28 00:12:29;;;;;;;39.42;33.78;;;;;;;;;;4990534;28;20219;-85
2024/02/28 00:14:56;;;;;;;40.85;35.78;;;;;;;;;;4998460;28;20230;-85
2024/02/28 00:17:23;;;;;;;48.28;35.00;;;;;;;;;;4994024;28;20785;-86
2024/02/28 00:19:52;;;;;;;45.65;36.15;;;;;;;;;;4988105;28;20207;-86
2024/02/28 00:22:19;;;;;;;45.03;32.88;;;;;;;;;;4997203;28;20206;-84
2024/02/28 00:24:46;;;;;;;41.65;32.22;;;;;;;;;;4995656;28;20230;-85
2024/02/28 00:27:13;;;;;;;38.17;33.25;;;;;;;;;;4986279;28;20290;-84
2024/02/28 00:29:40;;;;;;;43.20;34.25;;;;;;;;;;4992173;28;20254;-86
2024/02/28 00:32:07;;;;;;;38.20;34.08;;;;;;;;;;4984576;28;20254;-85
2024/02/28 00:34:34;;;;;;;48.00;36.08;;;;;;;;;;4985312;28;20339;-85
2024/02/28 00:37:02;;;;;;;41.67;33.78;;;;;;;;;;4993638;28;20235;-85
2024/02/28 00:39:29;;;;;;;41.47;33.17;;;;;;;;;;4997060;28;20286;-86
2024/02/28 00:41:56;;;;;;;48.08;37.33;;;;;;;;;;4992110;28;20218;-85
2024/02/28 00:44:23;;;;;;;46.38;35.00;;;;;;;;;;4997314;28;20295;-85
2024/02/28 00:46:50;;;;;;;41.83;34.25;;;;;;;;;;4994635;28;20611;-84
2024/02/28 00:49:17;;;;;;;42.70;33.13;;;;;;;;;;4996149;28;20214;-84
2024/02/28 00:51:44;;;;;;;41.92;35.97;;;;;;;;;;4993883;28;20210;-85
2024/02/28 00:54:13;;;;;;;44.45;34.80;;;;;;;;;;4993079;28;20245;-85
2024/02/28 00:56:40;;;;;;;47.17;35.33;;;;;;;;;;4992515;28;20230;-86
2024/02/28 00:59:10;;;;;;;48.42;36.00;;;;;;;;;;4991385;28;20233;-86
2024/02/28 01:01:37;;;;;;;44.05;35.85;;;;;;;;;;4991527;28;20222;-85
2024/02/28 01:04:04;;;;;;;50.78;35.90;;;;;;;;;;4993663;28;20250;-84
2024/02/28 01:06:31;;;;;;;47.75;34.95;;;;;;;;;;4988536;28;20927;-85
2024/02/28 01:08:58;;;;;;;48.40;36.60;;;;;;;;;;4987084;28;20207;-85
2024/02/28 01:11:26;;;;;;;50.20;37.28;;;;;;;;;;4990344;28;20202;-84
2024/02/28 01:13:53;;;;;;;47.25;37.67;;;;;;;;;;4983562;28;20222;-84
2024/02/28 01:16:20;;;;;;;53.63;36.78;;;;;;;;;;4984549;28;20207;-85
2024/02/28 01:18:48;;;;;;;50.40;36.22;;;;;;;;;;4986983;28;20321;-86
2024/02/28 01:21:15;;;;;;;47.20;36.75;;;;;;;;;;4989195;28;20214;-86
2024/02/28 01:23:42;;;;;;;51.40;38.63;;;;;;;;;;4993266;28;20222;-86
2024/02/28 01:26:09;;;;;;;48.05;37.90;;;;;;;;;;4998104;28;20210;-87
2024/02/28 01:28:37;;;;;;;55.75;40.03;;;;;;;;;;4998143;28;20527;-86
2024/02/28 01:31:05;;;;;;;52.20;38.97;;;;;;;;;;4992769;28;20245;-84
2024/02/28 01:33:33;;;;;;;56.55;41.90;;;;;;;;;;4998221;28;20305;-86
2024/02/28 01:36:00;;;;;;;60.33;40.35;;;;;;;;;;4994251;28;20217;-84
2024/02/28 01:38:27;;;;;;;54.65;40.65;;;;;;;;;;4991372;28;20254;-85
2024/02/28 01:40:54;;;;;;;51.70;38.00;;;;;;;;;;4993755;28;20221;-84
2024/02/28 01:43:21;;;;;;;52.95;37.53;;;;;;;;;;4989675;28;20223;-84
2024/02/28 01:45:50;;;;;;;53.33;39.80;;;;;;;;;;5000979;28;20696;-85
2024/02/28 01:48:17;;;;;;;47.95;37.97;;;;;;;;;;4988800;28;20206;-86
2024/02/28 01:50:44;;;;;;;45.70;36.80;;;;;;;;;;4991251;28;20203;-84
2024/02/28 01:53:13;;;;;;;55.70;38.33;;;;;;;;;;4990189;28;20222;-86
2024/02/28 01:55:41;;;;;;;51.50;39.20;;;;;;;;;;4992039;28;20210;-85
2024/02/28 01:58:08;;;;;;;59.10;40.88;;;;;;;;;;4988353;28;20230;-87
2024/02/28 02:00:35;;;;;;;46.17;38.92;;;;;;;;;;4987165;28;20229;-86
2024/02/28 02:05:39;;;;;;;49.72;38.75;;;;;;;;;;5248136;23;20265;-85
2024/02/28 02:08:07;;;;;;;60.78;42.22;;;;;;;;;;4987376;28;20207;-84
2024/02/28 02:10:34;;;;;;;59.83;41.17;;;;;;;;;;4985613;28;20250;-86
2024/02/28 02:13:05;;;;;;;62.15;42.20;;;;;;;;;;4992875;28;20253;-84
2024/02/28 02:15:32;;;;;;;65.10;43.45;;;;;;;;;;4989837;28;20297;-85
2024/02/28 02:17:59;;;;;;;61.65;42.85;;;;;;;;;;4981474;28;20285;-85
2024/02/28 02:20:27;;;;;;;61.60;44.08;;;;;;;;;;4990327;28;20272;-85
2024/02/28 02:22:55;;;;;;;58.90;40.58;;;;;;;;;;4985776;28;20273;-85
2024/02/28 02:25:23;;;;;;;64.45;40.63;;;;;;;;;;4990576;28;20245;-84
2024/02/28 02:27:50;;;;;;;54.90;39.65;;;;;;;;;;4981785;28;20238;-85
2024/02/28 02:30:17;;;;;;;60.33;40.25;;;;;;;;;;4984222;28;20236;-86
2024/02/28 02:32:43;;;;;;;54.53;38.67;;;;;;;;;;4996622;28;20206;-87
2024/02/28 02:35:11;;;;;;;60.22;39.90;;;;;;;;;;4991058;28;20202;-85
2024/02/28 02:37:38;;;;;;;53.67;37.70;;;;;;;;;;4998247;28;20218;-85
2024/02/28 02:40:06;;;;;;;54.35;39.30;;;;;;;;;;4973969;28;20206;-85
2024/02/28 02:42:33;;;;;;;56.75;38.80;;;;;;;;;;4981118;28;20214;-84
2024/02/28 02:45:00;;;;;;;59.78;41.40;;;;;;;;;;4998523;28;20230;-86
2024/02/28 02:47:27;;;;;;;56.13;41.22;;;;;;;;;;5001552;28;20670;-84
2024/02/28 02:49:54;;;;;;;57.35;38.90;;;;;;;;;;4993874;28;20215;-85
2024/02/28 02:52:21;;;;;;;57.15;39.50;;;;;;;;;;5000113;28;20214;-84
2024/02/28 02:54:48;;;;;;;57.00;39.90;;;;;;;;;;5001242;28;20234;-84
2024/02/28 02:57:17;;;;;;;58.78;40.83;;;;;;;;;;5000281;28;20214;-84
2024/02/28 02:59:44;;;;;;;56.10;39.78;;;;;;;;;;4983093;28;20223;-84
2024/02/28 03:02:11;;;;;;;53.47;39.90;;;;;;;;;;4994041;28;20238;-85
2024/02/28 03:04:38;;;;;;;50.70;39.92;;;;;;;;;;5009337;28;20218;-85
2024/02/28 03:07:05;;;;;;;56.83;40.65;;;;;;;;;;5006789;28;20206;-86
2024/02/28 03:09:32;;;;;;;50.65;38.20;;;;;;;;;;5003325;28;20237;-85
2024/02/28 03:11:59;;;;;;;56.10;37.50;;;;;;;;;;5005470;28;20198;-85
2024/02/28 03:14:28;;;;;;;59.53;40.03;;;;;;;;;;4989791;28;20231;-85
2024/02/28 03:16:55;;;;;;;54.60;38.78;;;;;;;;;;4991615;28;20249;-84
2024/02/28 03:19:22;;;;;;;62.88;40.28;;;;;;;;;;5005256;28;20260;-85
2024/02/28 03:21:49;;;;;;;60.13;41.92;;;;;;;;;;4983787;28;22157;-85
2024/02/28 03:24:17;;;;;;;66.47;43.05;;;;;;;;;;5000821;28;20284;-85
2024/02/28 03:26:44;;;;;;;59.90;36.53;;;;;;;;;;4986726;28;20214;-85
2024/02/28 03:29:11;;;;;;;98.88;51.17;;;;;;;;;;5006112;28;20201;-84
2024/02/28 03:31:39;;;;;;;103.97;44.47;;;;;;;;;;4995285;28;20214;-85
2024/02/28 03:34:06;;;;;;;73.47;44.50;;;;;;;;;;5000769;28;20309;-84
2024/02/28 03:36:33;;;;;;;127.88;49.92;;;;;;;;;;4993207;28;20202;-85
2024/02/28 03:39:00;;;;;;;151.73;50.08;;;;;;;;;;4997793;28;20641;-85
2024/02/28 03:41:27;;;;;;;120.07;45.25;;;;;;;;;;4995446;28;20210;-85
2024/02/28 03:43:54;;;;;;;122.82;49.90;;;;;;;;;;4989908;28;20222;-83
2024/02/28 03:46:22;;;;;;;87.28;42.03;;;;;;;;;;4986400;28;20257;-85
2024/02/28 03:48:50;;;;;;;154.20;51.65;;;;;;;;;;4991395;28;20293;-84
2024/02/28 03:51:17;;;;;;;147.68;50.08;;;;;;;;;;4988301;28;20239;-86
2024/02/28 03:53:44;;;;;;;154.77;48.15;;;;;;;;;;4987285;28;20226;-86
2024/02/28 03:56:12;;;;;;;117.88;46.70;;;;;;;;;;4988816;28;20230;-86
2024/02/28 03:58:39;;;;;;;148.07;50.53;;;;;;;;;;4995792;28;20293;-85
2024/02/28 04:01:06;;;;;;;92.20;41.53;;;;;;;;;;4994002;28;20218;-85
2024/02/28 04:03:33;;;;;;;109.95;46.08;;;;;;;;;;4992522;28;20588;-85
2024/02/28 04:06:02;;;;;;;82.50;41.75;;;;;;;;;;4993929;28;20238;-86
2024/02/28 04:08:29;;;;;;;88.43;47.35;;;;;;;;;;4989821;28;20210;-86
2024/02/28 04:10:56;;;;;;;118.78;45.00;;;;;;;;;;4990356;28;20215;-86
2024/02/28 04:13:23;;;;;;;116.47;43.10;;;;;;;;;;4985751;28;20230;-85
2024/02/28 04:15:50;;;;;;;215.90;53.25;;;;;;;;;;4995732;28;20230;-86
2024/02/28 04:18:17;;;;;;;112.53;44.22;;;;;;;;;;4989536;28;20222;-85
2024/02/28 04:20:44;;;;;;;131.07;40.03;;;;;;;;;;5005190;28;20237;-85
2024/02/28 04:23:13;;;;;;;84.88;42.50;;;;;;;;;;4983090;28;20266;-86
2024/02/28 04:25:40;;;;;;;91.18;44.65;;;;;;;;;;4999834;28;20238;-85
2024/02/28 04:28:08;;;;;;;141.23;45.95;;;;;;;;;;4998344;28;20694;-86
2024/02/28 04:30:35;;;;;;;97.78;43.53;;;;;;;;;;4989201;28;20207;-84
2024/02/28 04:33:02;;;;;;;103.40;44.50;;;;;;;;;;4989067;28;20226;-85
2024/02/28 04:35:29;;;;;;;148.82;48.55;;;;;;;;;;4982934;28;20237;-85
2024/02/28 04:37:56;;;;;;;215.35;56.05;;;;;;;;;;4987053;28;20207;-85
2024/02/28 04:40:25;;;;;;;214.50;54.15;;;;;;;;;;4989279;28;20209;-84
2024/02/28 04:42:52;;;;;;;118.63;42.85;;;;;;;;;;4990434;28;20214;-85
2024/02/28 04:45:19;;;;;;;132.20;46.85;;;;;;;;;;4993211;28;20277;-86
2024/02/28 04:47:46;;;;;;;248.48;56.70;;;;;;;;;;4979258;28;20223;-86
2024/02/28 04:50:13;;;;;;;152.95;47.72;;;;;;;;;;4984004;28;20998;-85
2024/02/28 04:52:40;;;;;;;221.80;57.20;;;;;;;;;;4985388;28;20206;-85
2024/02/28 04:55:07;;;;;;;140.38;47.88;;;;;;;;;;4978686;28;20235;-85
2024/02/28 04:57:36;;;;;;;170.07;51.28;;;;;;;;;;4986446;28;20211;-86
2024/02/28 05:00:03;;;;;;;177.80;54.63;;;;;;;;;;4988291;28;20276;-85
2024/02/28 05:02:30;;;;;;;143.30;47.35;;;;;;;;;;4985246;28;20233;-85
2024/02/28 05:04:58;;;;;;;181.30;48.35;;;;;;;;;;4986545;28;20237;-85
2024/02/28 05:07:25;;;;;;;144.07;48.50;;;;;;;;;;4982739;28;20211;-85
2024/02/28 05:09:52;;;;;;;118.75;48.92;;;;;;;;;;4979869;28;20254;-85
2024/02/28 05:12:19;;;;;;;98.38;47.60;;;;;;;;;;4985719;28;20260;-84
2024/02/28 05:14:47;;;;;;;86.35;46.35;;;;;;;;;;4984042;28;20589;-85
2024/02/28 05:17:14;;;;;;;94.40;45.58;;;;;;;;;;4983363;28;20289;-84
2024/02/28 05:19:41;;;;;;;104.32;47.10;;;;;;;;;;4992099;28;20226;-86
2024/02/28 05:22:09;;;;;;;86.95;46.63;;;;;;;;;;4978494;28;20203;-85
2024/02/28 05:24:36;;;;;;;94.30;49.90;;;;;;;;;;4988921;28;20707;-85
2024/02/28 05:27:03;;;;;;;107.40;46.53;;;;;;;;;;4981244;28;20230;-85
2024/02/28 05:29:30;;;;;;;96.10;43.17;;;;;;;;;;4986270;28;20206;-86
2024/02/28 05:31:58;;;;;;;89.18;45.65;;;;;;;;;;4987668;28;20210;-86
2024/02/28 05:34:26;;;;;;;90.45;44.47;;;;;;;;;;4987389;28;20235;-86
2024/02/28 05:36:53;;;;;;;143.35;53.63;;;;;;;;;;4985036;28;20215;-85
2024/02/28 05:39:20;;;;;;;97.95;44.05;;;;;;;;;;4989774;28;20223;-86
2024/02/28 05:41:47;;;;;;;70.10;41.70;;;;;;;;;;4982556;28;20214;-85
2024/02/28 05:44:14;;;;;;;112.95;49.47;;;;;;;;;;4989976;28;20289;-85
2024/02/28 05:46:41;;;;;;;81.05;42.22;;;;;;;;;;4990244;28;20206;-84
2024/02/28 05:49:10;;;;;;;85.85;46.38;;;;;;;;;;4992826;28;20646;-85
2024/02/28 05:51:37;;;;;;;84.30;48.15;;;;;;;;;;4984989;28;20251;-84
2024/02/28 05:54:04;;;;;;;78.25;42.75;;;;;;;;;;4997714;28;20227;-85
2024/02/28 05:56:31;;;;;;;87.78;40.15;;;;;;;;;;4984308;28;20298;-84
2024/02/28 05:58:58;;;;;;;95.53;41.85;;;;;;;;;;4994033;28;20247;-85
2024/02/28 06:01:25;;;;;;;75.85;44.45;;;;;;;;;;4992417;28;20202;-85
2024/02/28 06:03:52;;;;;;;67.57;42.63;;;;;;;;;;4995349;28;20322;-86
2024/02/28 06:06:20;;;;;;;85.47;43.13;;;;;;;;;;4990964;28;20602;-85
2024/02/28 06:08:48;;;;;;;132.52;49.83;;;;;;;;;;4984642;28;20231;-88
2024/02/28 06:11:15;;;;;;;89.25;41.90;;;;;;;;;;4984292;28;20215;-86
2024/02/28 06:13:42;;;;;;;80.55;43.45;;;;;;;;;;4985506;28;20223;-85
2024/02/28 06:16:09;;;;;;;96.80;41.50;;;;;;;;;;4986303;28;20654;-85
2024/02/28 06:18:36;;;;;;;94.38;44.13;;;;;;;;;;4986003;28;20234;-84
2024/02/28 06:21:04;;;;;;;74.43;41.47;;;;;;;;;;4984374;28;20207;-85
2024/02/28 06:23:32;;;;;;;80.38;43.38;;;;;;;;;;4988173;28;20313;-86
2024/02/28 06:25:59;;;;;;;104.72;44.95;;;;;;;;;;4991279;28;20266;-84
2024/02/28 06:28:26;;;;;;;106.20;45.15;;;;;;;;;;5000606;28;20617;-85
2024/02/28 06:30:53;;;;;;;82.10;41.17;;;;;;;;;;5000592;28;20244;-85
2024/02/28 06:33:20;;;;;;;99.75;46.42;;;;;;;;;;5000949;28;20257;-85
2024/02/28 06:35:47;;;;;;;100.90;45.97;;;;;;;;;;5000838;28;20206;-83
2024/02/28 06:38:14;;;;;;;94.85;47.05;;;;;;;;;;5001240;28;20213;-85
2024/02/28 06:40:43;;;;;;;103.60;48.00;;;;;;;;;;4985429;28;20718;-84
2024/02/28 06:43:11;;;;;;;98.57;44.65;;;;;;;;;;4982660;28;20281;-84
2024/02/28 06:45:38;;;;;;;103.93;46.08;;;;;;;;;;4981120;28;20250;-86
2024/02/28 06:48:05;;;;;;;104.97;43.97;;;;;;;;;;4982245;28;20648;-85
2024/02/28 06:50:32;;;;;;;93.85;42.53;;;;;;;;;;4981828;28;20234;-85
2024/02/28 06:52:59;;;;;;;98.90;42.78;;;;;;;;;;4981502;28;20215;-85
2024/02/28 06:55:26;;;;;;;81.18;40.55;;;;;;;;;;4985286;28;20214;-84
2024/02/28 06:57:54;;;;;;;82.25;40.55;;;;;;;;;;4996342;28;20209;-85
2024/02/28 07:03:25;;;;;;;102.20;47.25;;;;;;;;;;4970624;28;20292;-83
2024/02/28 07:05:53;;;;;;;106.15;41.72;;;;;;;;;;4968188;28;20219;-85
2024/02/28 07:08:20;;;;;;;101.97;42.55;;;;;;;;;;4971677;28;20210;-86
2024/02/28 07:10:49;;;;;;;114.18;43.20;;;;;;;;;;4973839;28;20210;-85
2024/02/28 07:13:17;;;;;;;72.28;38.03;;;;;;;;;;4974222;28;20239;-86
2024/02/28 07:15:44;;;;;;;108.40;43.90;;;;;;;;;;4966750;28;20639;-85
2024/02/28 07:18:11;;;;;;;144.77;43.22;;;;;;;;;;4971723;28;20214;-84
2024/02/28 07:20:39;;;;;;;141.15;41.63;;;;;;;;;;4970936;28;20242;-86
2024/02/28 07:23:06;;;;;;;123.43;46.28;;;;;;;;;;4970637;28;20226;-85
2024/02/28 07:25:33;;;;;;;106.80;44.90;;;;;;;;;;4979417;28;20203;-87
2024/02/28 07:28:00;;;;;;;134.32;41.35;;;;;;;;;;4969287;28;20208;-85
2024/02/28 07:30:29;;;;;;;110.05;43.35;;;;;;;;;;4971313;28;20207;-85
2024/02/28 07:32:56;;;;;;;140.05;45.30;;;;;;;;;;4976828;28;20678;-85
2024/02/28 07:35:23;;;;;;;85.82;39.42;;;;;;;;;;4965496;28;20306;-85
2024/02/28 07:37:50;;;;;;;112.63;43.53;;;;;;;;;;4959027;29;20211;-89
2024/02/28 07:40:18;;;;;;;80.57;41.30;;;;;;;;;;4959366;29;20719;-83
2024/02/28 07:42:45;;;;;;;111.00;45.38;;;;;;;;;;4955663;28;20215;-83
2024/02/28 07:45:12;;;;;;;84.60;42.15;;;;;;;;;;4958485;29;20664;-89
2024/02/28 07:47:41;;;;;;;93.65;41.75;;;;;;;;;;4959937;29;20208;-84
2024/02/28 07:50:08;;;;;;;86.05;43.45;;;;;;;;;;4963530;28;20234;-83
2024/02/28 07:52:37;;;;;;;85.43;43.17;;;;;;;;;;4976559;28;20612;-82
2024/02/28 07:55:06;;;;;;;93.50;41.05;;;;;;;;;;4976822;28;20285;-80
2024/02/28 07:57:34;;;;;;;91.78;43.53;;;;;;;;;;4959786;28;20239;-82
2024/02/28 08:00:01;;;;;;;88.60;42.50;;;;;;;;;;4964477;28;20219;-82
2024/02/28 08:02:28;;;;;;;90.47;45.33;;;;;;;;;;4964960;28;20216;-83
2024/02/28 08:04:56;;;;;;;92.47;45.13;;;;;;;;;;4971891;28;20289;-83
2024/02/28 08:07:23;;;;;;;80.18;43.80;;;;;;;;;;4979301;28;20215;-84
2024/02/28 08:09:50;;;;;;;101.80;47.10;;;;;;;;;;4979359;28;20533;-82
2024/02/28 08:12:17;;;;;;;86.60;40.72;;;;;;;;;;4960497;28;20212;-81
2024/02/28 08:14:44;;;;;;;127.18;47.15;;;;;;;;;;4976637;28;20235;-82
2024/02/28 08:17:13;;;;;;;113.90;46.72;;;;;;;;;;4976757;28;20253;-83
2024/02/28 08:19:40;;;;;;;95.82;41.95;;;;;;;;;;4971119;28;20278;-82
2024/02/28 08:22:08;;;;;;;97.47;45.58;;;;;;;;;;4970427;28;20547;-85
2024/02/28 08:24:35;;;;;;;92.60;43.13;;;;;;;;;;4976501;28;20277;-83
2024/02/28 08:27:02;;;;;;;91.00;43.20;;;;;;;;;;4988554;28;20210;-83
2024/02/28 08:29:29;;;;;;;101.68;43.03;;;;;;;;;;5000778;28;20233;-83
2024/02/28 08:31:56;;;;;;;88.38;43.03;;;;;;;;;;4993217;28;20219;-82
2024/02/28 08:34:23;;;;;;;100.78;46.92;;;;;;;;;;4975341;28;20233;-82
2024/02/28 08:36:50;;;;;;;98.68;46.13;;;;;;;;;;4984352;28;20206;-78
2024/02/28 08:39:20;;;;;;;95.15;44.53;;;;;;;;;;4984234;28;20215;-81
2024/02/28 08:41:47;;;;;;;93.13;44.90;;;;;;;;;;4968187;28;20206;-84
2024/02/28 08:44:14;;;;;;;110.82;46.75;;;;;;;;;;4967142;28;20219;-84
2024/02/28 08:46:41;;;;;;;106.05;47.08;;;;;;;;;;4971433;28;20261;-81
2024/02/28 08:49:08;;;;;;;81.70;46.28;;;;;;;;;;4974571;28;20211;-85
2024/02/28 08:51:35;;;;;;;87.03;45.28;;;;;;;;;;4966798;28;20204;-85
2024/02/28 08:54:03;;;;;;;78.57;42.92;;;;;;;;;;4969409;28;20262;-87
2024/02/28 08:56:32;;;;;;;84.75;44.85;;;;;;;;;;4968824;28;20218;-85
2024/02/28 08:59:00;;;;;;;39.28;27.92;;;;;;;;;;4969728;28;20273;-85
2024/02/28 09:01:27;;;;;;;76.18;42.30;;;;;;;;;;4962447;28;20618;-85
2024/02/28 09:03:54;;;;;;;88.82;43.63;;;;;;;;;;4978520;28;20230;-88
2024/02/28 09:06:21;;;;;;;82.10;44.10;;;;;;;;;;4968110;28;20265;-87
2024/02/28 09:08:48;;;;;;;87.85;42.97;;;;;;;;;;4967403;28;20253;-92
2024/02/28 09:11:15;;;;;;;83.60;45.78;;;;;;;;;;4974860;28;20607;-92
2024/02/28 09:13:43;;;;;;;65.30;34.42;;;;;;;;;;4969626;28;20227;-89
2024/02/28 09:16:10;;;;;;;77.90;44.50;;;;;;;;;;4968030;28;20246;-84
2024/02/28 09:18:38;;;;;;;81.13;39.60;;;;;;;;;;4971157;28;20226;-81
2024/02/28 09:21:05;;;;;;;98.53;40.03;;;;;;;;;;4955051;29;20919;-81
2024/02/28 09:23:32;;;;;;;84.00;43.42;;;;;;;;;;4957288;28;20251;-80
2024/02/28 09:25:59;;;;;;;84.82;43.92;;;;;;;;;;4963745;28;20218;-79
2024/02/28 09:28:26;;;;;;;81.35;47.42;;;;;;;;;;4998234;28;20983;-84
2024/02/28 09:30:54;;;;;;;84.40;42.88;;;;;;;;;;4977071;28;20214;-84
2024/02/28 09:33:21;;;;;;;87.88;48.25;;;;;;;;;;4978356;28;20281;-83
2024/02/28 09:35:48;;;;;;;86.65;44.88;;;;;;;;;;4979288;28;20206;-86
2024/02/28 09:38:15;;;;;;;74.13;42.55;;;;;;;;;;4963692;28;20207;-84
2024/02/28 09:40:42;;;;;;;90.40;49.92;;;;;;;;;;4957430;29;20220;-81
2024/02/28 09:43:25;;;;;;;81.22;46.33;;;;;;;;;;4957321;28;20702;-81
2024/02/28 09:45:52;;;;;;;84.25;48.10;;;;;;;;;;4957634;29;20664;-78
2024/02/28 09:48:20;;;;;;;75.75;43.38;;;;;;;;;;4955490;29;20274;-90
2024/02/28 09:50:47;;;;;;;88.70;44.80;;;;;;;;;;4955091;29;20208;-87
2024/02/28 09:53:14;;;;;;;74.90;45.13;;;;;;;;;;4959091;28;20278;-84
2024/02/28 09:55:41;;;;;;;95.18;44.42;;;;;;;;;;4957560;29;20250;-84
2024/02/28 09:58:09;;;;;;;103.10;43.65;;;;;;;;;;4958237;29;20714;-84
2024/02/28 10:00:37;;;;;;;85.00;48.97;;;;;;;;;;4958282;29;20220;-82
2024/02/28 10:03:05;;;;;;;79.32;44.35;;;;;;;;;;4957395;28;20227;-84
2024/02/28 10:05:34;;;;;;;78.20;45.25;;;;;;;;;;4989184;28;20241;-87
2024/02/28 10:08:01;;;;;;;85.88;44.08;;;;;;;;;;4999966;28;20210;-85
2024/02/28 10:10:28;;;;;;;96.35;44.33;;;;;;;;;;4984852;28;20265;-86
2024/02/28 10:12:55;;;;;;;67.07;38.85;;;;;;;;;;4978580;28;20203;-85
2024/02/28 10:15:22;;;;;;;89.63;47.03;;;;;;;;;;4993115;28;20257;-84
2024/02/28 10:17:49;;;;;;;106.47;46.13;;;;;;;;;;4996929;28;20966;-82
2024/02/28 10:20:16;;;;;;;73.38;38.42;;;;;;;;;;4995572;28;20226;-89
2024/02/28 10:22:45;;;;;;;81.88;43.63;;;;;;;;;;4995033;28;20661;-89
2024/02/28 10:25:11;;;;;;;84.00;44.92;;;;;;;;;;4994436;28;20621;-90
2024/02/28 10:27:38;;;;;;;81.20;44.72;;;;;;;;;;4994775;28;20211;-89
2024/02/28 10:30:06;;;;;;;90.05;47.15;;;;;;;;;;4995140;28;20210;-89
2024/02/28 10:32:33;;;;;;;87.90;45.58;;;;;;;;;;4995335;28;20195;-88
2024/02/28 10:35:01;;;;;;;93.68;41.65;;;;;;;;;;4992743;28;20230;-89
2024/02/28 10:37:31;;;;;;;81.32;43.60;;;;;;;;;;4976300;28;20289;-89
2024/02/28 10:39:59;;;;;;;52.65;34.33;;;;;;;;;;4977397;28;20206;-82
2024/02/28 10:42:28;;;;;;;84.70;41.75;;;;;;;;;;4976142;28;20215;-81
2024/02/28 10:44:57;;;;;;;64.25;34.47;;;;;;;;;;4982380;28;20746;-83
2024/02/28 10:47:25;;;;;;;96.47;46.88;;;;;;;;;;4981055;28;20207;-80
2024/02/28 10:49:53;;;;;;;103.13;47.35;;;;;;;;;;4994979;28;20272;-81
2024/02/28 10:52:22;;;;;;;95.10;46.75;;;;;;;;;;4994289;28;20206;-82
2024/02/28 10:54:56;;;;;;;97.70;46.88;;;;;;;;;;4994668;28;20222;-82
2024/02/28 10:57:26;;;;;;;106.35;48.25;;;;;;;;;;4995613;28;20222;-80
2024/02/28 10:59:53;;;;;;;103.63;51.08;;;;;;;;;;4995366;28;20202;-79
2024/02/28 11:02:19;;;;;;;109.75;54.45;;;;;;;;;;4994548;28;20226;-80
2024/02/28 11:04:46;;;;;;;101.43;50.45;;;;;;;;;;4995856;28;20288;-80
2024/02/28 11:07:20;;;;;;;107.25;51.90;;;;;;;;;;4995300;28;20557;-80
2024/02/28 11:09:47;;;;;;;100.75;51.03;;;;;;;;;;4995399;28;20187;-81
2024/02/28 11:12:27;;;;;;;110.82;52.40;;;;;;;;;;4994837;28;20232;-81
2024/02/28 11:14:57;;;;;;;78.38;41.55;;;;;;;;;;4995161;28;20224;-81
2024/02/28 11:17:27;;;;;;;115.47;52.45;;;;;;;;;;4994815;28;20276;-80
2024/02/28 11:19:54;;;;;;;105.88;51.30;;;;;;;;;;4995274;28;20232;-80
2024/02/28 11:22:21;;;;;;;86.72;45.70;;;;;;;;;;4994197;28;20254;-81
2024/02/28 11:24:49;;;;;;;86.75;45.13;;;;;;;;;;4995097;28;20768;-81
2024/02/28 11:27:16;;;;;;;83.93;45.50;;;;;;;;;;4994679;28;20926;-81
2024/02/28 11:29:46;;;;;;;95.43;48.17;;;;;;;;;;4995103;28;20198;-80
2024/02/28 11:32:14;;;;;;;82.32;44.65;;;;;;;;;;4996546;28;20257;-80
2024/02/28 11:34:41;;;;;;;86.38;48.60;;;;;;;;;;4998521;28;20301;-80
2024/02/28 11:37:10;;;;;;;83.00;43.83;;;;;;;;;;4998734;28;20221;-81
2024/02/28 11:39:37;;;;;;;58.50;33.28;;;;;;;;;;4999339;28;20264;-81
2024/02/28 11:42:10;;;;;;;58.45;34.13;;;;;;;;;;4998449;28;20229;-80
2024/02/28 11:44:37;;;;;;;75.20;42.38;;;;;;;;;;4999218;28;20261;-81
2024/02/28 11:47:06;;;;;;;78.63;42.35;;;;;;;;;;4999091;28;20237;-80
2024/02/28 11:49:34;;;;;;;94.05;45.83;;;;;;;;;;4998498;28;20269;-81
2024/02/28 11:52:01;;;;;;;74.40;40.22;;;;;;;;;;4998155;28;20210;-81
2024/02/28 11:54:29;;;;;;;76.82;42.40;;;;;;;;;;4996877;28;20764;-81
2024/02/28 11:56:56;;;;;;;96.40;46.85;;;;;;;;;;4998996;28;20233;-80
2024/02/28 11:59:23;;;;;;;98.95;47.70;;;;;;;;;;4998411;28;20214;-80
2024/02/28 12:01:52;;;;;;;94.85;46.95;;;;;;;;;;4997867;28;20226;-80
2024/02/28 12:04:20;;;;;;;99.35;46.60;;;;;;;;;;4997925;28;20257;-80
2024/02/28 12:06:47;;;;;;;79.00;42.85;;;;;;;;;;4998604;28;20210;-80
2024/02/28 12:09:15;;;;;;;79.88;40.63;;;;;;;;;;4998551;28;20210;-81
2024/02/28 12:11:42;;;;;;;83.43;42.30;;;;;;;;;;4998012;28;20301;-80
2024/02/28 12:14:09;;;;;;;96.47;45.75;;;;;;;;;;4998709;28;20698;-80
2024/02/28 12:16:38;;;;;;;69.82;41.45;;;;;;;;;;4998013;28;20273;-81
2024/02/28 12:19:06;;;;;;;91.95;47.25;;;;;;;;;;4997405;28;20210;-82
2024/02/28 12:21:35;;;;;;;89.82;46.40;;;;;;;;;;4998024;28;20226;-81
2024/02/28 12:24:02;;;;;;;82.13;45.13;;;;;;;;;;4998032;28;20244;-80
2024/02/28 12:26:29;;;;;;;79.90;44.10;;;;;;;;;;4998247;28;20206;-81
2024/02/28 12:28:56;;;;;;;77.50;42.03;;;;;;;;;;4998214;28;20202;-80
2024/02/28 12:31:23;;;;;;;84.32;43.60;;;;;;;;;;4997919;28;20206;-81
2024/02/28 12:33:50;;;;;;;89.22;47.05;;;;;;;;;;4997937;28;20218;-80
2024/02/28 12:36:17;;;;;;;81.15;44.10;;;;;;;;;;4998346;28;20214;-80
2024/02/28 12:38:45;;;;;;;76.22;46.03;;;;;;;;;;4998000;28;20210;-81
2024/02/28 12:41:12;;;;;;;84.78;45.45;;;;;;;;;;4997429;28;20223;-80
2024/02/28 12:43:40;;;;;;;70.40;41.63;;;;;;;;;;4996479;28;20230;-82
2024/02/28 12:46:07;;;;;;;82.60;43.97;;;;;;;;;;4997638;28;20206;-80
2024/02/28 12:48:38;;;;;;;81.75;43.85;;;;;;;;;;4997670;28;20210;-82
2024/02/28 12:51:06;;;;;;;79.88;43.60;;;;;;;;;;4997205;28;20187;-80
2024/02/28 12:53:33;;;;;;;79.15;44.55;;;;;;;;;;4997337;28;20706;-81
2024/02/28 12:56:01;;;;;;;82.68;46.28;;;;;;;;;;4997419;28;20210;-81
2024/02/28 12:58:28;;;;;;;74.70;45.90;;;;;;;;;;4998056;28;20214;-81
2024/02/28 13:00:55;;;;;;;76.60;45.63;;;;;;;;;;4996809;28;20536;-80
2024/02/28 13:03:22;;;;;;;67.88;42.78;;;;;;;;;;4997459;28;20227;-81
2024/02/28 13:05:49;;;;;;;77.72;44.00;;;;;;;;;;4996873;28;20265;-79
2024/02/28 13:08:16;;;;;;;63.88;40.63;;;;;;;;;;4997140;28;20198;-81
2024/02/28 13:10:43;;;;;;;66.75;43.20;;;;;;;;;;4996617;28;20210;-81
2024/02/28 13:13:12;;;;;;;54.35;36.97;;;;;;;;;;4997309;28;20629;-80
2024/02/28 13:15:39;;;;;;;62.88;41.17;;;;;;;;;;4996840;28;20667;-80
2024/02/28 13:18:09;;;;;;;66.45;42.85;;;;;;;;;;4997239;28;20238;-82
2024/02/28 13:20:37;;;;;;;73.53;43.92;;;;;;;;;;4996769;28;20269;-81
2024/02/28 13:23:05;;;;;;;84.75;47.13;;;;;;;;;;4996592;28;20226;-80
2024/02/28 13:25:32;;;;;;;72.68;44.47;;;;;;;;;;4997127;28;20210;-81
2024/02/28 13:27:58;;;;;;;68.68;44.92;;;;;;;;;;4996919;28;20261;-80
2024/02/28 13:30:27;;;;;;;74.03;45.95;;;;;;;;;;4996893;28;20198;-81
2024/02/28 13:32:54;;;;;;;72.60;44.10;;;;;;;;;;4995686;28;20265;-82
2024/02/28 13:35:21;;;;;;;73.85;43.85;;;;;;;;;;4996458;28;20453;-82
2024/02/28 13:37:48;;;;;;;69.45;47.40;;;;;;;;;;4996581;28;20241;-80
2024/02/28 13:40:15;;;;;;;67.47;45.47;;;;;;;;;;4985151;28;20687;-81
2024/02/28 13:42:42;;;;;;;69.55;43.40;;;;;;;;;;4982536;28;20748;-81
2024/02/28 13:45:10;;;;;;;60.53;42.38;;;;;;;;;;4986272;28;20207;-82
2024/02/28 13:47:39;;;;;;;62.22;41.90;;;;;;;;;;4988003;28;20203;-87
2024/02/28 13:50:07;;;;;;;60.10;41.17;;;;;;;;;;4978153;28;20623;-83
2024/02/28 13:52:35;;;;;;;59.78;41.85;;;;;;;;;;4977161;28;20982;-87
2024/02/28 13:55:02;;;;;;;60.13;42.97;;;;;;;;;;4974567;28;20273;-84
2024/02/28 13:57:29;;;;;;;65.53;40.00;;;;;;;;;;4976277;28;20454;-84
2024/02/28 13:59:56;;;;;;;61.17;42.40;;;;;;;;;;4974756;28;20825;-84
2024/02/28 14:02:25;;;;;;;56.10;39.27;;;;;;;;;;4976413;28;20517;-82
2024/02/28 14:04:54;;;;;;;54.30;41.13;;;;;;;;;;4976210;28;21016;-80
2024/02/28 14:07:21;;;;;;;63.90;42.37;;;;;;;;;;4977879;28;20438;-82
2024/02/28 14:09:48;;;;;;;54.60;38.90;;;;;;;;;;4976858;28;20458;-84
2024/02/28 14:12:15;;;;;;;57.05;39.70;;;;;;;;;;4976205;28;20417;-83
2024/02/28 14:14:42;;;;;;;57.30;40.00;;;;;;;;;;4977904;28;20247;-84
2024/02/28 14:17:09;;;;;;;52.63;38.17;;;;;;;;;;4977334;28;20446;-83
2024/02/28 14:19:36;;;;;;;54.33;38.90;;;;;;;;;;4978142;28;20254;-88